Warrensburg, IL (62573)

4:19 AM CDT on July 30, 2016 (GMT -0500)
Greenbrier Drive | | Change Station

Elev 652 ft 39.93 °N, 88.98 °W | Updated 4 minutes ago

Mostly Cloudy
Mostly Cloudy
65.5 °F
Feels Like 65.5 °F
N
0.6
Wind Variable Wind from SW
Gusts 1.2 mph

Today
High -- | Low -- °F
--% Chance of Precip.
Yesterday
High -- | Low -- °F
Precip. -- in
Pressure 29.92 in
Visibility 10.0 miles
Clouds Mostly Cloudy 2700 ft
Dew Point 62 °F
Humidity 87%
Rainfall 0.00 in
Snow Depth Not available.
5:53 AM 8:11 PM
Waning Crescent, 15% visible
METAR KDEC 300854Z AUTO 29004KT 10SM BKN027 21/18 A2993 RMK AO2 SLP131 T02060183 53000
Pressure 29.92 in
Visibility 10.0 miles
Clouds Mostly Cloudy 2700 ft
Dew Point 62 °F
Humidity 87%
Rainfall 0.00 in
Snow Depth Not available.
5:53 AM 8:11 PM
Waning Crescent, 15% visible
METAR KDEC 300854Z AUTO 29004KT 10SM BKN027 21/18 A2993 RMK AO2 SLP131 T02060183 53000

10-Day Weather Forecast

Almanac

Astronomy

Jul. 30, 2016 Rise Set
Actual Time
Civil Twilight
Nautical Twilight
Astronomical Twilight
Moon
Length of Visible Light
Length of Day
Tomorrow will be .
, % of the Moon is Illuminated

Today's Extremes

State Highs State Lows

Community

WunderPhotos

Upload Photos

1,928,528 photos uploaded!

WunderBlog® & News

Nearby

Air Quality

  Air Quality AQ Index Pollutant
Not available.

Snow Depth

Station Depth Elevation

Earthquake Activity

City Distance Mag. Time & Date
Minimum magnitude displayed is 2.5.

Coastal Water Temperatures

Place Temperature

Stations

Nearby Weather Stations

Station Location Temp. Windchill Dew Point Humidity Wind Precip. Elev Updated Type
                   

Watches & Warnings

There are currently no watches in effect.